Time;durP1;ratioP1;P1;durP2;ratioP2;P2;SDS_P1;SDS_P2;PMS_P1;PMS_P2;Temp;Humidity;BMP_temperature;BMP_pressure;BME280_temperature;BME280_humidity;BME280_pressure;Samples;Min_cycle;Max_cycle;Signal;HPM_P1;HPM_P2
2024/02/21 00:01:31;;;;;;;10.37;3.77;;;;;;;;;;4972177;28;20477;-83
2024/02/21 00:04:15;;;;;;;9.47;3.60;;;;;;;;;;4990752;28;20516;-84
2024/02/21 00:06:51;;;;;;;7.50;4.43;;;;;;;;;;4983341;28;20442;-86
2024/02/21 00:09:22;;;;;;;10.73;3.70;;;;;;;;;;4997120;28;20454;-86
2024/02/21 00:11:55;;;;;;;8.50;4.40;;;;;;;;;;4980498;28;20487;-85
2024/02/21 00:14:25;;;;;;;13.20;5.77;;;;;;;;;;4978738;28;20566;-87
2024/02/21 00:17:01;;;;;;;6.87;3.57;;;;;;;;;;4982215;28;20480;-86
2024/02/21 00:19:35;;;;;;;11.57;4.13;;;;;;;;;;4990530;28;20552;-86
2024/02/21 00:22:05;;;;;;;7.47;4.17;;;;;;;;;;4998658;28;20471;-84
2024/02/21 00:25:02;;;;;;;7.00;3.93;;;;;;;;;;4983802;28;20485;-86
2024/02/21 00:27:37;;;;;;;6.23;3.70;;;;;;;;;;4986675;28;20462;-83
2024/02/21 00:30:40;;;;;;;9.93;4.37;;;;;;;;;;4996902;28;20415;-84
2024/02/21 00:33:13;;;;;;;7.07;4.67;;;;;;;;;;5004175;28;20537;-85
2024/02/21 00:36:03;;;;;;;8.10;4.10;;;;;;;;;;5008656;28;21384;-82
2024/02/21 00:38:34;;;;;;;6.37;4.00;;;;;;;;;;5000011;28;20442;-83
2024/02/21 00:41:06;;;;;;;4.60;3.73;;;;;;;;;;4993937;28;20449;-83
2024/02/21 00:43:49;;;;;;;6.27;4.23;;;;;;;;;;4985198;28;20477;-86
2024/02/21 00:46:26;;;;;;;10.50;4.40;;;;;;;;;;4983835;28;20459;-83
2024/02/21 00:48:57;;;;;;;9.77;4.60;;;;;;;;;;4979181;28;20466;-84
2024/02/21 00:51:29;;;;;;;11.03;4.83;;;;;;;;;;4979875;28;20479;-84
2024/02/21 00:54:02;;;;;;;10.50;4.17;;;;;;;;;;4979704;28;20471;-85
2024/02/21 00:56:30;;;;;;;7.73;4.33;;;;;;;;;;4988628;28;20462;-84
2024/02/21 00:59:02;;;;;;;7.47;4.47;;;;;;;;;;4981772;28;20452;-84
2024/02/21 01:01:35;;;;;;;8.83;4.80;;;;;;;;;;4982356;28;20532;-85
2024/02/21 01:04:19;;;;;;;7.40;4.50;;;;;;;;;;4984839;28;20572;-86
2024/02/21 01:06:53;;;;;;;8.07;4.20;;;;;;;;;;4998918;28;20451;-84
2024/02/21 01:09:25;;;;;;;11.07;4.63;;;;;;;;;;4987716;28;20495;-85
2024/02/21 01:12:08;;;;;;;5.50;4.20;;;;;;;;;;4979008;28;20501;-85
2024/02/21 01:14:43;;;;;;;12.43;4.30;;;;;;;;;;4979739;28;20732;-86
2024/02/21 01:17:20;;;;;;;6.60;4.30;;;;;;;;;;4979435;28;20463;-84
2024/02/21 01:19:55;;;;;;;9.63;5.33;;;;;;;;;;4999865;28;20486;-85
2024/02/21 01:22:36;;;;;;;9.93;4.17;;;;;;;;;;4982290;28;20505;-86
2024/02/21 01:25:16;;;;;;;6.43;3.70;;;;;;;;;;4992733;28;20501;-85
2024/02/21 01:27:51;;;;;;;11.60;4.50;;;;;;;;;;4991533;28;20450;-84
2024/02/21 01:30:20;;;;;;;8.13;4.43;;;;;;;;;;4981565;28;20485;-87
2024/02/21 01:32:47;;;;;;;6.93;4.10;;;;;;;;;;5001904;28;20463;-85
2024/02/21 01:35:15;;;;;;;7.10;4.20;;;;;;;;;;4992107;28;21067;-86
2024/02/21 01:37:51;;;;;;;10.03;4.40;;;;;;;;;;4981750;28;20462;-85
2024/02/21 01:40:37;;;;;;;8.90;4.73;;;;;;;;;;4984766;28;20482;-85
2024/02/21 01:43:20;;;;;;;6.00;3.50;;;;;;;;;;4991044;28;20466;-85
2024/02/21 01:45:50;;;;;;;9.60;4.23;;;;;;;;;;5000708;28;20463;-86
2024/02/21 01:48:21;;;;;;;9.90;4.27;;;;;;;;;;4989296;28;20524;-85
2024/02/21 01:50:53;;;;;;;6.60;4.47;;;;;;;;;;5003338;28;20467;-85
2024/02/21 01:53:33;;;;;;;10.20;4.43;;;;;;;;;;5007183;28;20444;-86
2024/02/21 01:56:02;;;;;;;5.23;4.20;;;;;;;;;;5006312;28;20550;-84
2024/02/21 01:58:45;;;;;;;7.13;4.07;;;;;;;;;;5016922;28;20450;-84
2024/02/21 02:01:17;;;;;;;8.00;4.07;;;;;;;;;;5003429;28;20461;-85
2024/02/21 02:03:52;;;;;;;12.03;4.90;;;;;;;;;;5019364;28;20566;-84
2024/02/21 02:06:23;;;;;;;8.30;4.23;;;;;;;;;;5027936;28;20438;-85
2024/02/21 02:08:55;;;;;;;5.67;4.30;;;;;;;;;;5018626;28;20546;-85
2024/02/21 02:11:34;;;;;;;7.80;4.23;;;;;;;;;;5003687;28;20487;-84
2024/02/21 02:14:06;;;;;;;7.20;4.20;;;;;;;;;;5004669;28;20469;-85
2024/02/21 02:16:38;;;;;;;6.70;5.37;;;;;;;;;;5010030;28;20450;-84
2024/02/21 02:19:06;;;;;;;7.73;4.50;;;;;;;;;;5002650;28;20482;-84
2024/02/21 02:21:47;;;;;;;8.60;4.57;;;;;;;;;;5001791;28;20491;-83
2024/02/21 02:24:17;;;;;;;9.30;4.47;;;;;;;;;;5003824;28;20528;-84
2024/02/21 02:26:55;;;;;;;8.40;4.83;;;;;;;;;;4984363;28;20537;-84
2024/02/21 02:29:32;;;;;;;8.20;4.50;;;;;;;;;;4981294;28;20459;-81
2024/02/21 02:32:00;;;;;;;6.53;4.63;;;;;;;;;;4988505;28;20477;-84
2024/02/21 02:34:37;;;;;;;11.53;4.83;;;;;;;;;;4980746;28;20984;-83
2024/02/21 02:40:06;;;;;;;10.20;4.60;;;;;;;;;;5013864;28;20450;-83
2024/02/21 02:42:44;;;;;;;6.93;5.30;;;;;;;;;;4990433;28;20860;-85
2024/02/21 02:45:17;;;;;;;10.10;4.77;;;;;;;;;;4982374;28;20493;-84
2024/02/21 02:47:47;;;;;;;8.20;4.50;;;;;;;;;;4975203;28;20435;-84
2024/02/21 02:50:17;;;;;;;13.27;5.00;;;;;;;;;;4983760;28;20462;-86
2024/02/21 02:52:54;;;;;;;9.97;4.23;;;;;;;;;;4974003;28;20486;-83
2024/02/21 02:55:29;;;;;;;7.63;4.10;;;;;;;;;;4978488;28;20437;-83
2024/02/21 02:58:02;;;;;;;5.97;4.17;;;;;;;;;;4999648;28;20446;-85
2024/02/21 03:00:36;;;;;;;11.60;4.17;;;;;;;;;;5014923;28;20570;-84
2024/02/21 03:03:06;;;;;;;9.43;4.57;;;;;;;;;;5025141;28;20478;-83
2024/02/21 03:05:36;;;;;;;12.93;4.90;;;;;;;;;;5028986;28;20489;-86
2024/02/21 03:08:07;;;;;;;9.73;4.20;;;;;;;;;;5017291;28;20457;-85
2024/02/21 03:10:41;;;;;;;7.97;4.20;;;;;;;;;;5004990;28;20462;-83
2024/02/21 03:13:13;;;;;;;6.97;4.33;;;;;;;;;;4989611;28;20473;-83
2024/02/21 03:15:45;;;;;;;11.03;4.00;;;;;;;;;;4991436;28;20463;-85
2024/02/21 03:18:20;;;;;;;10.00;5.00;;;;;;;;;;4989997;28;20518;-83
2024/02/21 03:20:53;;;;;;;12.93;3.90;;;;;;;;;;4982354;28;20470;-84
2024/02/21 03:23:31;;;;;;;6.27;3.80;;;;;;;;;;4996778;28;20457;-86
2024/02/21 03:26:04;;;;;;;7.23;4.37;;;;;;;;;;4982671;28;20443;-86
2024/02/21 03:29:04;;;;;;;7.00;3.70;;;;;;;;;;4990168;28;20537;-85
2024/02/21 03:31:38;;;;;;;8.10;4.70;;;;;;;;;;4997722;28;20506;-86
2024/02/21 03:34:14;;;;;;;8.43;4.97;;;;;;;;;;4980106;28;20956;-83
2024/02/21 03:36:44;;;;;;;12.53;4.23;;;;;;;;;;4996500;28;20451;-84
2024/02/21 03:39:18;;;;;;;8.50;3.97;;;;;;;;;;4982463;28;20460;-82
2024/02/21 03:41:49;;;;;;;6.60;3.53;;;;;;;;;;4999591;28;20516;-84
2024/02/21 03:44:30;;;;;;;12.43;4.80;;;;;;;;;;5001057;28;20557;-83
2024/02/21 03:47:10;;;;;;;4.90;4.20;;;;;;;;;;4989079;28;20969;-86
2024/02/21 03:49:38;;;;;;;9.17;4.10;;;;;;;;;;4989875;28;20474;-85
2024/02/21 03:52:15;;;;;;;7.30;4.00;;;;;;;;;;4987450;28;20486;-85
2024/02/21 03:54:50;;;;;;;8.60;4.37;;;;;;;;;;5016431;28;20462;-84
2024/02/21 03:57:28;;;;;;;7.57;4.33;;;;;;;;;;5018528;28;20509;-84
2024/02/21 04:00:10;;;;;;;8.30;3.90;;;;;;;;;;5005191;28;20462;-83
2024/02/21 04:03:08;;;;;;;6.00;4.27;;;;;;;;;;5003959;28;20458;-83
2024/02/21 04:05:49;;;;;;;6.10;4.50;;;;;;;;;;5012658;28;20474;-85
2024/02/21 04:08:25;;;;;;;7.30;3.90;;;;;;;;;;5005082;28;20447;-83
2024/02/21 04:11:02;;;;;;;5.70;3.87;;;;;;;;;;5000220;28;20461;-85
2024/02/21 04:13:39;;;;;;;7.37;3.80;;;;;;;;;;4997913;28;20539;-85
2024/02/21 04:16:23;;;;;;;7.63;4.50;;;;;;;;;;4998100;28;20442;-84
2024/02/21 04:19:06;;;;;;;6.00;3.60;;;;;;;;;;5009336;28;20463;-86
2024/02/21 04:21:51;;;;;;;8.90;4.20;;;;;;;;;;5011056;28;20470;-84
2024/02/21 04:24:27;;;;;;;5.43;3.47;;;;;;;;;;5008121;28;20555;-84
2024/02/21 04:27:15;;;;;;;6.27;4.30;;;;;;;;;;4996853;28;20457;-84
2024/02/21 04:29:45;;;;;;;10.13;4.77;;;;;;;;;;5010403;28;20482;-86
2024/02/21 04:32:22;;;;;;;13.40;3.93;;;;;;;;;;4997541;28;20467;-84
2024/02/21 04:35:11;;;;;;;6.93;3.73;;;;;;;;;;4995943;28;20462;-86
2024/02/21 04:37:49;;;;;;;10.83;3.77;;;;;;;;;;5002529;28;20442;-86
2024/02/21 04:40:33;;;;;;;6.53;4.10;;;;;;;;;;4990859;28;20958;-86
2024/02/21 04:43:12;;;;;;;7.37;3.97;;;;;;;;;;4986486;28;20481;-86
2024/02/21 04:45:43;;;;;;;8.70;4.90;;;;;;;;;;4989335;28;20481;-85
2024/02/21 04:48:18;;;;;;;5.37;3.70;;;;;;;;;;4994986;28;20470;-85
2024/02/21 04:50:48;;;;;;;6.37;3.80;;;;;;;;;;4996374;28;20450;-83
2024/02/21 04:53:21;;;;;;;7.97;5.30;;;;;;;;;;4997777;28;20478;-86
2024/02/21 04:56:04;;;;;;;5.30;3.43;;;;;;;;;;5014317;28;20454;-83
2024/02/21 04:58:40;;;;;;;9.40;4.30;;;;;;;;;;5013286;28;20447;-84
2024/02/21 05:01:09;;;;;;;5.80;3.50;;;;;;;;;;5015454;28;20446;-85
2024/02/21 05:03:39;;;;;;;5.63;3.87;;;;;;;;;;5016757;28;20473;-84
2024/02/21 05:06:10;;;;;;;6.87;3.90;;;;;;;;;;5006154;28;20482;-83
2024/02/21 05:08:41;;;;;;;8.03;3.83;;;;;;;;;;5006710;28;20510;-85
2024/02/21 05:11:22;;;;;;;7.50;4.17;;;;;;;;;;5015288;28;20553;-85
2024/02/21 05:13:50;;;;;;;7.43;4.73;;;;;;;;;;4998420;28;20468;-85
2024/02/21 05:16:20;;;;;;;7.10;3.43;;;;;;;;;;5002601;28;21665;-85
2024/02/21 05:18:59;;;;;;;7.20;4.70;;;;;;;;;;4993061;28;20511;-86
2024/02/21 05:21:28;;;;;;;9.50;4.23;;;;;;;;;;5007660;28;20486;-85
2024/02/21 05:24:00;;;;;;;10.67;4.23;;;;;;;;;;4993397;28;20467;-83
2024/02/21 05:26:29;;;;;;;7.33;4.23;;;;;;;;;;5007129;28;20439;-84
2024/02/21 05:28:59;;;;;;;4.90;3.30;;;;;;;;;;4984435;28;20453;-84
2024/02/21 05:31:53;;;;;;;11.10;4.07;;;;;;;;;;4993213;28;20473;-87
2024/02/21 05:34:40;;;;;;;8.27;4.07;;;;;;;;;;4983522;28;22127;-86
2024/02/21 05:37:12;;;;;;;10.53;4.63;;;;;;;;;;4985912;28;20471;-85
2024/02/21 05:39:41;;;;;;;4.60;3.40;;;;;;;;;;4999699;28;20519;-83
2024/02/21 05:45:46;;;;;;;14.63;3.93;;;;;;;;;;4901716;29;20562;-84
2024/02/21 05:48:18;;;;;;;6.10;4.07;;;;;;;;;;4961678;28;20498;-84
2024/02/21 05:50:51;;;;;;;7.17;3.67;;;;;;;;;;4990997;28;20438;-84
2024/02/21 05:53:29;;;;;;;6.40;3.33;;;;;;;;;;4981271;28;20447;-85
2024/02/21 05:56:01;;;;;;;5.93;3.93;;;;;;;;;;4982602;28;20547;-85
2024/02/21 05:58:37;;;;;;;6.60;3.57;;;;;;;;;;4991858;28;20469;-84
2024/02/21 06:25:26;;;;;;;7.57;3.53;;;;;;;;;;4312286;26;20488;-83
2024/02/21 06:27:59;;;;;;;5.40;3.50;;;;;;;;;;4993908;28;20447;-86
2024/02/21 06:30:27;;;;;;;11.87;3.37;;;;;;;;;;4978299;28;20451;-86
2024/02/21 06:32:56;;;;;;;8.33;4.33;;;;;;;;;;4993909;28;20470;-84
2024/02/21 06:35:27;;;;;;;7.07;3.50;;;;;;;;;;4977292;28;20967;-86
2024/02/21 06:37:54;;;;;;;5.93;4.90;;;;;;;;;;4986603;28;20464;-84
2024/02/21 06:40:24;;;;;;;5.93;3.80;;;;;;;;;;4984650;28;20471;-86
2024/02/21 06:43:02;;;;;;;8.17;3.97;;;;;;;;;;4985269;28;20533;-85
2024/02/21 06:45:39;;;;;;;7.67;3.87;;;;;;;;;;4980781;28;20471;-84
2024/02/21 06:48:08;;;;;;;6.20;3.50;;;;;;;;;;4997405;28;20590;-86
2024/02/21 06:50:36;;;;;;;8.30;3.63;;;;;;;;;;4995917;28;20787;-85
2024/02/21 06:53:12;;;;;;;5.53;4.03;;;;;;;;;;4997074;28;20479;-84
2024/02/21 06:55:44;;;;;;;12.50;4.10;;;;;;;;;;4994024;28;20461;-87
2024/02/21 06:58:23;;;;;;;12.23;3.23;;;;;;;;;;4981114;28;20463;-85
2024/02/21 07:01:02;;;;;;;3.93;2.60;;;;;;;;;;4999047;28;20462;-84
2024/02/21 07:03:46;;;;;;;9.00;3.10;;;;;;;;;;4983549;28;20967;-85
2024/02/21 07:06:28;;;;;;;8.53;3.27;;;;;;;;;;4983854;28;20558;-83
2024/02/21 07:09:10;;;;;;;6.23;3.10;;;;;;;;;;5001072;28;20469;-84
2024/02/21 07:11:41;;;;;;;5.23;3.60;;;;;;;;;;4985927;28;20488;-82
2024/02/21 07:14:17;;;;;;;7.07;3.03;;;;;;;;;;4998352;28;20800;-84
2024/02/21 07:16:53;;;;;;;4.07;2.50;;;;;;;;;;5001953;28;20526;-84
2024/02/21 07:19:38;;;;;;;3.53;2.30;;;;;;;;;;4991112;28;20497;-84
2024/02/21 07:22:35;;;;;;;4.53;2.50;;;;;;;;;;4994548;28;20485;-84
2024/02/21 07:25:21;;;;;;;6.20;2.80;;;;;;;;;;4998597;28;20505;-83
2024/02/21 07:28:15;;;;;;;5.63;2.73;;;;;;;;;;5019211;28;20488;-86
2024/02/21 07:30:57;;;;;;;6.77;2.60;;;;;;;;;;4993457;28;20939;-85
2024/02/21 07:33:48;;;;;;;10.53;2.60;;;;;;;;;;5000638;28;20529;-86
2024/02/21 07:36:33;;;;;;;4.53;2.60;;;;;;;;;;4987622;28;20513;-83
2024/02/21 07:39:05;;;;;;;6.80;3.00;;;;;;;;;;5009133;28;20471;-85
2024/02/21 07:41:40;;;;;;;5.43;2.83;;;;;;;;;;5016120;28;20500;-84
2024/02/21 07:44:10;;;;;;;5.00;3.07;;;;;;;;;;5015072;28;20451;-85
2024/02/21 07:46:56;;;;;;;3.00;2.60;;;;;;;;;;5007399;28;20475;-84
2024/02/21 07:49:31;;;;;;;3.33;2.23;;;;;;;;;;4995952;28;20455;-85
2024/02/21 07:52:08;;;;;;;4.10;2.70;;;;;;;;;;4995747;28;20845;-84
2024/02/21 07:54:35;;;;;;;6.93;3.20;;;;;;;;;;5001927;28;20479;-84
2024/02/21 07:57:04;;;;;;;6.00;2.87;;;;;;;;;;5023348;28;20465;-84
2024/02/21 07:59:37;;;;;;;6.90;3.00;;;;;;;;;;5021765;28;20510;-84
2024/02/21 08:02:06;;;;;;;7.30;3.20;;;;;;;;;;4985036;28;20479;-83
2024/02/21 08:04:38;;;;;;;6.70;2.83;;;;;;;;;;4985913;28;20509;-86
2024/02/21 08:07:10;;;;;;;5.37;3.87;;;;;;;;;;4981073;28;20496;-86
2024/02/21 08:09:40;;;;;;;5.60;3.00;;;;;;;;;;4998113;28;20458;-86
2024/02/21 08:12:09;;;;;;;7.10;3.00;;;;;;;;;;4996690;28;20486;-84
2024/02/21 08:14:38;;;;;;;5.87;3.50;;;;;;;;;;4980418;28;20458;-85
2024/02/21 08:17:07;;;;;;;5.83;3.20;;;;;;;;;;4978205;28;20525;-85
2024/02/21 08:19:41;;;;;;;5.90;2.70;;;;;;;;;;4985195;28;20966;-85
2024/02/21 08:22:12;;;;;;;10.23;3.57;;;;;;;;;;4995642;28;20525;-87
2024/02/21 08:24:45;;;;;;;5.73;2.80;;;;;;;;;;4989681;28;20870;-85
2024/02/21 08:27:15;;;;;;;8.37;3.00;;;;;;;;;;4995768;28;20486;-85
2024/02/21 08:29:45;;;;;;;7.07;2.57;;;;;;;;;;4998281;28;20522;-83
2024/02/21 08:32:21;;;;;;;4.93;3.03;;;;;;;;;;4994199;28;20519;-86
2024/02/21 08:34:51;;;;;;;6.63;3.40;;;;;;;;;;4995918;28;20523;-84
2024/02/21 08:37:23;;;;;;;7.17;3.30;;;;;;;;;;4998685;28;20449;-86
2024/02/21 08:39:51;;;;;;;5.10;3.73;;;;;;;;;;4991144;28;22107;-85
2024/02/21 08:42:21;;;;;;;7.57;3.00;;;;;;;;;;4994684;28;20494;-86
2024/02/21 08:45:02;;;;;;;9.00;3.90;;;;;;;;;;5002042;28;20463;-85
2024/02/21 08:47:36;;;;;;;9.07;3.20;;;;;;;;;;4992259;28;20483;-85
2024/02/21 08:50:06;;;;;;;9.10;3.63;;;;;;;;;;4993622;28;20481;-84
2024/02/21 08:52:45;;;;;;;6.77;3.10;;;;;;;;;;4997096;28;20466;-85
2024/02/21 08:55:18;;;;;;;6.83;3.00;;;;;;;;;;4999184;28;20470;-85
2024/02/21 09:00:46;;;;;;;7.47;3.93;;;;;;;;;;4990264;28;20510;-85
2024/02/21 09:03:14;;;;;;;8.53;3.10;;;;;;;;;;4996727;28;20485;-85
2024/02/21 09:05:48;;;;;;;6.57;2.53;;;;;;;;;;4994212;28;22311;-86
2024/02/21 09:08:19;;;;;;;3.07;2.70;;;;;;;;;;4999074;28;20459;-84
2024/02/21 09:10:51;;;;;;;8.27;4.00;;;;;;;;;;4991246;28;21125;-84
2024/02/21 09:13:25;;;;;;;5.80;2.63;;;;;;;;;;4994407;28;20478;-85
2024/02/21 09:16:17;;;;;;;8.47;3.30;;;;;;;;;;4945884;28;20479;-83
2024/02/21 09:18:57;;;;;;;7.20;4.00;;;;;;;;;;4956553;28;20448;-84
2024/02/21 09:21:42;;;;;;;5.60;3.20;;;;;;;;;;4937346;28;20460;-86
2024/02/21 09:24:20;;;;;;;7.20;2.73;;;;;;;;;;4955855;28;20563;-83
2024/02/21 09:26:56;;;;;;;8.33;4.07;;;;;;;;;;4937161;28;20527;-83
2024/02/21 09:29:44;;;;;;;4.47;2.70;;;;;;;;;;4952799;28;21514;-82
2024/02/21 09:32:16;;;;;;;6.20;2.83;;;;;;;;;;4949113;28;20504;-85
2024/02/21 09:34:52;;;;;;;7.00;3.70;;;;;;;;;;4935956;28;20515;-83
2024/02/21 09:37:28;;;;;;;6.87;3.00;;;;;;;;;;4959249;28;20539;-84
2024/02/21 09:40:04;;;;;;;3.50;2.90;;;;;;;;;;4990309;23;20520;-85
2024/02/21 09:42:38;;;;;;;11.07;3.27;;;;;;;;;;4983173;28;20482;-85
2024/02/21 09:45:39;;;;;;;6.40;3.00;;;;;;;;;;4982041;28;20456;-85
2024/02/21 09:48:39;;;;;;;3.60;2.60;;;;;;;;;;4973303;28;20479;-85
2024/02/21 09:51:13;;;;;;;4.20;2.60;;;;;;;;;;4965590;28;20515;-86
2024/02/21 09:53:51;;;;;;;8.27;2.87;;;;;;;;;;4969674;28;20464;-86
2024/02/21 09:56:41;;;;;;;4.37;2.50;;;;;;;;;;4964946;28;20467;-84
2024/02/21 09:59:18;;;;;;;7.00;3.20;;;;;;;;;;4968455;28;20486;-84
2024/02/21 10:01:50;;;;;;;6.33;2.70;;;;;;;;;;4964279;28;20483;-84
2024/02/21 10:04:18;;;;;;;6.87;3.10;;;;;;;;;;4961027;28;20448;-83
2024/02/21 10:07:04;;;;;;;6.67;2.87;;;;;;;;;;4959556;28;20520;-86
2024/02/21 10:09:37;;;;;;;10.70;2.70;;;;;;;;;;4962545;28;20536;-84
2024/02/21 10:12:19;;;;;;;5.97;2.73;;;;;;;;;;4962684;28;20468;-84
2024/02/21 10:14:46;;;;;;;4.80;3.00;;;;;;;;;;4964740;28;20933;-87
2024/02/21 10:17:19;;;;;;;4.50;3.07;;;;;;;;;;4968772;28;20464;-87
2024/02/21 10:19:51;;;;;;;5.07;2.47;;;;;;;;;;4966369;28;20579;-84
2024/02/21 10:22:35;;;;;;;7.60;2.90;;;;;;;;;;4965276;28;20480;-85
2024/02/21 10:25:26;;;;;;;;;;;;;;;;;;;;;
2024/02/21 10:28:12;;;;;;;5.60;2.63;;;;;;;;;;4964065;28;20453;-84
2024/02/21 10:30:51;;;;;;;6.93;2.20;;;;;;;;;;4966495;28;20448;-86
2024/02/21 10:33:27;;;;;;;6.90;3.00;;;;;;;;;;4971666;28;20476;-84
2024/02/21 10:36:36;;;;;;;4.57;2.30;;;;;;;;;;4972261;28;20468;-84
2024/02/21 10:39:24;;;;;;;10.13;3.93;;;;;;;;;;4973738;28;20456;-84
2024/02/21 10:42:13;;;;;;;7.77;3.00;;;;;;;;;;4968219;28;20464;-83
2024/02/21 10:45:04;;;;;;;4.30;2.70;;;;;;;;;;4972236;28;21297;-85
2024/02/21 10:47:37;;;;;;;5.73;2.37;;;;;;;;;;4978432;28;20455;-84
2024/02/21 10:50:09;;;;;;;6.07;2.50;;;;;;;;;;4985355;28;20452;-84
2024/02/21 10:53:12;;;;;;;6.20;3.23;;;;;;;;;;4984161;28;20464;-85
2024/02/21 10:55:52;;;;;;;7.30;2.73;;;;;;;;;;4944988;28;20456;-85
2024/02/21 10:58:29;;;;;;;2.57;2.37;;;;;;;;;;4956083;28;20469;-85
2024/02/21 11:01:03;;;;;;;4.73;2.80;;;;;;;;;;4965918;28;20464;-85
2024/02/21 11:03:33;;;;;;;7.03;2.70;;;;;;;;;;4960535;28;20463;-85
2024/02/21 11:06:02;;;;;;;6.63;2.30;;;;;;;;;;4967199;28;20491;-84
2024/02/21 11:09:00;;;;;;;7.00;3.17;;;;;;;;;;4964374;28;20479;-85
2024/02/21 11:11:33;;;;;;;5.30;2.50;;;;;;;;;;4969580;28;20489;-83
2024/02/21 11:14:07;;;;;;;4.53;2.30;;;;;;;;;;4960599;28;20569;-82
2024/02/21 11:16:47;;;;;;;5.93;2.47;;;;;;;;;;4967447;28;20541;-84
2024/02/21 11:19:23;;;;;;;2.50;1.80;;;;;;;;;;4962568;28;20488;-84
2024/02/21 11:22:02;;;;;;;2.77;1.87;;;;;;;;;;4965495;28;20497;-84
2024/02/21 11:24:43;;;;;;;3.27;1.90;;;;;;;;;;4976386;28;20532;-83
2024/02/21 11:27:27;;;;;;;3.40;2.00;;;;;;;;;;4982039;28;20480;-84
2024/02/21 11:30:22;;;;;;;7.60;3.60;;;;;;;;;;4982673;28;20517;-83
2024/02/21 11:33:08;;;;;;;2.87;1.97;;;;;;;;;;4972856;28;20488;-84
2024/02/21 11:35:38;;;;;;;4.20;2.00;;;;;;;;;;4973180;28;20488;-85
2024/02/21 11:38:16;;;;;;;4.07;2.10;;;;;;;;;;4967595;28;21226;-85
2024/02/21 11:40:48;;;;;;;9.40;2.30;;;;;;;;;;4975340;28;20543;-84
2024/02/21 11:43:34;;;;;;;3.73;2.00;;;;;;;;;;4968568;28;20484;-84
2024/02/21 11:46:24;;;;;;;4.37;2.20;;;;;;;;;;4968178;28;20489;-85
2024/02/21 11:49:35;;;;;;;4.80;2.60;;;;;;;;;;4942087;29;20434;-84
2024/02/21 11:52:24;;;;;;;4.30;2.20;;;;;;;;;;4934312;28;20522;-83
2024/02/21 11:55:16;;;;;;;4.30;2.17;;;;;;;;;;4936670;28;20449;-84
2024/02/21 11:57:54;;;;;;;6.60;2.70;;;;;;;;;;4936449;28;20450;-86
2024/02/21 12:00:35;;;;;;;5.87;2.23;;;;;;;;;;4939123;28;20593;-83
2024/02/21 12:03:31;;;;;;;6.20;2.80;;;;;;;;;;4979226;23;20484;-83
2024/02/21 12:06:14;;;;;;;5.97;2.20;;;;;;;;;;4960786;28;20516;-83
2024/02/21 12:12:08;;;;;;;2.77;1.83;;;;;;;;;;4958911;28;21895;-84
2024/02/21 12:14:51;;;;;;;3.87;2.37;;;;;;;;;;4923323;28;20517;-84
2024/02/21 12:17:24;;;;;;;3.70;2.30;;;;;;;;;;4960353;28;20472;-82
2024/02/21 12:20:20;;;;;;;3.67;1.90;;;;;;;;;;4930848;28;20456;-85
2024/02/21 12:23:04;;;;;;;6.60;2.73;;;;;;;;;;4928458;28;20508;-84
2024/02/21 12:25:39;;;;;;;6.90;2.60;;;;;;;;;;4914486;29;20526;-84
2024/02/21 12:28:12;;;;;;;3.90;2.20;;;;;;;;;;4926892;29;20457;-85
2024/02/21 12:30:49;;;;;;;4.83;2.50;;;;;;;;;;4942424;28;20458;-84
2024/02/21 12:33:25;;;;;;;4.23;2.37;;;;;;;;;;4942547;28;20490;-84
2024/02/21 12:35:54;;;;;;;2.90;2.20;;;;;;;;;;4943599;28;20468;-83
2024/02/21 12:38:22;;;;;;;7.00;2.30;;;;;;;;;;4942571;28;20469;-85
2024/02/21 12:40:57;;;;;;;6.33;2.90;;;;;;;;;;4922427;29;20458;-84
2024/02/21 12:43:34;;;;;;;4.30;3.23;;;;;;;;;;4942523;28;20458;-85
2024/02/21 12:46:07;;;;;;;5.87;2.50;;;;;;;;;;4928350;28;20492;-84
2024/02/21 12:48:37;;;;;;;10.87;2.63;;;;;;;;;;4930746;29;20469;-86
2024/02/21 12:51:07;;;;;;;4.77;2.40;;;;;;;;;;4933049;29;20456;-87
2024/02/21 12:53:46;;;;;;;9.90;2.83;;;;;;;;;;4931879;28;20462;-84
2024/02/21 12:56:14;;;;;;;4.63;3.00;;;;;;;;;;4944661;28;20532;-85
2024/02/21 12:58:43;;;;;;;7.37;2.30;;;;;;;;;;4944368;28;20461;-85
2024/02/21 13:01:15;;;;;;;5.03;2.07;;;;;;;;;;4944835;28;20545;-87
2024/02/21 13:03:48;;;;;;;5.17;2.37;;;;;;;;;;4940828;28;20540;-84
2024/02/21 13:06:17;;;;;;;8.20;2.33;;;;;;;;;;4946753;28;20647;-85
2024/02/21 13:08:44;;;;;;;5.03;2.63;;;;;;;;;;4950339;28;20489;-86
2024/02/21 13:11:26;;;;;;;4.53;2.13;;;;;;;;;;4946900;28;20482;-86
2024/02/21 13:14:06;;;;;;;4.70;2.07;;;;;;;;;;4944834;28;21042;-85
2024/02/21 13:16:42;;;;;;;4.10;2.30;;;;;;;;;;4945771;28;20456;-85
2024/02/21 13:19:28;;;;;;;2.90;2.20;;;;;;;;;;4939214;28;20456;-84
2024/02/21 13:22:22;;;;;;;4.23;2.33;;;;;;;;;;4935375;28;20429;-85
2024/02/21 13:24:55;;;;;;;6.07;2.80;;;;;;;;;;4951683;28;20521;-86
2024/02/21 13:27:37;;;;;;;3.60;1.90;;;;;;;;;;4951375;28;20492;-84
2024/02/21 13:30:25;;;;;;;2.13;1.93;;;;;;;;;;4945207;28;20441;-86
2024/02/21 13:32:55;;;;;;;3.47;2.27;;;;;;;;;;4951116;28;20607;-87
2024/02/21 13:35:31;;;;;;;6.50;2.20;;;;;;;;;;4953220;28;20458;-88
2024/02/21 13:38:15;;;;;;;3.97;2.20;;;;;;;;;;4946769;28;20497;-88
2024/02/21 13:41:13;;;;;;;6.47;2.40;;;;;;;;;;4951223;28;20470;-88
2024/02/21 13:43:53;;;;;;;7.80;2.27;;;;;;;;;;4954593;28;20461;-85
2024/02/21 13:50:17;;;;;;;6.97;2.60;;;;;;;;;;4873197;29;21292;-86
2024/02/21 14:04:37;;;;;;;;;;;;;;;;;;;;;
2024/02/21 14:11:09;;;;;;;;;;;;;;;;;;;;;
2024/02/21 14:17:36;;;;;;;3.77;2.40;;;;;;;;;;4877096;29;20440;-85
2024/02/21 14:21:04;;;;;;;7.57;2.97;;;;;;;;;;4928249;28;20456;-87
2024/02/21 14:30:48;;;;;;;;;;;;;;;;;;;;;
2024/02/21 14:33:35;;;;;;;4.10;2.13;;;;;;;;;;4949493;28;20444;-86
2024/02/21 14:36:26;;;;;;;3.40;2.33;;;;;;;;;;4940689;28;20440;-86
2024/02/21 14:39:14;;;;;;;3.40;1.70;;;;;;;;;;4952681;28;20460;-84
2024/02/21 14:42:17;;;;;;;8.80;3.20;;;;;;;;;;4940428;28;20481;-83
2024/02/21 14:45:03;;;;;;;;;;;;;;;;;;;;;
2024/02/21 14:47:52;;;;;;;3.53;2.07;;;;;;;;;;4946092;28;20499;-83
2024/02/21 14:50:38;;;;;;;3.83;2.10;;;;;;;;;;4906378;29;20459;-86
2024/02/21 14:53:22;;;;;;;2.37;1.90;;;;;;;;;;4909913;29;20480;-84
2024/02/21 14:59:15;;;;;;;4.40;1.90;;;;;;;;;;4893886;29;20468;-82
2024/02/21 15:02:01;;;;;;;3.57;2.57;;;;;;;;;;4908819;29;20502;-86
2024/02/21 15:04:51;;;;;;;4.00;2.30;;;;;;;;;;4906566;29;20467;-84
2024/02/21 15:07:28;;;;;;;3.67;1.93;;;;;;;;;;4910270;29;20495;-86
2024/02/21 15:09:59;;;;;;;4.60;2.53;;;;;;;;;;4910567;29;20519;-84
2024/02/21 15:12:50;;;;;;;4.40;2.00;;;;;;;;;;4909260;29;20557;-83
2024/02/21 15:15:51;;;;;;;3.70;2.40;;;;;;;;;;4912827;29;20798;-85
2024/02/21 15:18:38;;;;;;;3.20;1.80;;;;;;;;;;4921751;29;20451;-85
2024/02/21 15:21:20;;;;;;;4.17;2.20;;;;;;;;;;4916808;29;20459;-86
2024/02/21 15:24:05;;;;;;;4.47;2.00;;;;;;;;;;4929501;28;20447;-85
2024/02/21 15:26:46;;;;;;;5.03;2.43;;;;;;;;;;4930329;29;20487;-84
2024/02/21 15:29:42;;;;;;;5.50;2.50;;;;;;;;;;4970581;28;20480;-85
2024/02/21 15:32:37;;;;;;;4.37;1.97;;;;;;;;;;4953322;28;20533;-86
2024/02/21 15:35:21;;;;;;;2.13;1.50;;;;;;;;;;4969137;28;20465;-83
2024/02/21 15:38:04;;;;;;;7.43;2.77;;;;;;;;;;4968783;28;20475;-86
2024/02/21 15:40:39;;;;;;;4.90;2.17;;;;;;;;;;4969842;28;20446;-84
2024/02/21 15:43:28;;;;;;;2.73;1.60;;;;;;;;;;4966722;28;20590;-85
2024/02/21 15:46:28;;;;;;;1.70;1.60;;;;;;;;;;4944438;28;20480;-83
2024/02/21 15:49:26;;;;;;;1.90;1.50;;;;;;;;;;4959487;28;20465;-83
2024/02/21 15:52:07;;;;;;;2.43;1.40;;;;;;;;;;4942634;28;20488;-84
2024/02/21 15:54:52;;;;;;;3.13;1.50;;;;;;;;;;4952999;28;20457;-85
2024/02/21 15:57:28;;;;;;;6.87;2.13;;;;;;;;;;4946882;28;20492;-85
2024/02/21 16:00:14;;;;;;;2.63;1.47;;;;;;;;;;4961354;28;20836;-86
2024/02/21 16:03:07;;;;;;;5.50;2.20;;;;;;;;;;4955638;28;20581;-84
2024/02/21 16:05:56;;;;;;;1.53;1.43;;;;;;;;;;4945647;28;20543;-85
2024/02/21 16:08:40;;;;;;;3.10;2.10;;;;;;;;;;4956419;28;21026;-84
2024/02/21 16:14:27;;;;;;;1.90;1.30;;;;;;;;;;4935841;28;20488;-83
2024/02/21 16:17:12;;;;;;;4.70;1.90;;;;;;;;;;4959960;28;20649;-86
2024/02/21 16:20:03;;;;;;;3.27;1.80;;;;;;;;;;5118545;23;20499;-86
2024/02/21 16:22:37;;;;;;;4.10;1.93;;;;;;;;;;4992308;28;20468;-85
2024/02/21 16:25:17;;;;;;;2.33;1.60;;;;;;;;;;4982201;28;20535;-85
2024/02/21 16:28:11;;;;;;;3.40;1.80;;;;;;;;;;4982993;28;20484;-84
2024/02/21 16:30:48;;;;;;;5.70;1.90;;;;;;;;;;4973536;28;20540;-85
2024/02/21 16:37:19;;;;;;;1.70;1.60;;;;;;;;;;4917373;29;20475;-86
2024/02/21 16:40:23;;;;;;;5.27;2.30;;;;;;;;;;4859975;29;20477;-85
2024/02/21 16:43:22;;;;;;;5.80;1.67;;;;;;;;;;4902322;29;20479;-86
2024/02/21 16:45:56;;;;;;;2.20;1.60;;;;;;;;;;4881468;29;20552;-85
2024/02/21 16:48:37;;;;;;;4.00;1.97;;;;;;;;;;4956468;28;21100;-86
2024/02/21 16:51:10;;;;;;;1.83;1.60;;;;;;;;;;4954839;28;20461;-83
2024/02/21 16:54:07;;;;;;;2.57;1.80;;;;;;;;;;4950943;28;20459;-84
2024/02/21 16:56:57;;;;;;;4.30;2.20;;;;;;;;;;4971320;28;20455;-87
2024/02/21 16:59:50;;;;;;;2.50;2.13;;;;;;;;;;4956921;28;20496;-88
2024/02/21 17:02:30;;;;;;;3.30;1.60;;;;;;;;;;4954022;28;20496;-87
2024/02/21 17:05:17;;;;;;;5.10;2.67;;;;;;;;;;4946426;28;20461;-83
2024/02/21 17:11:24;;;;;;;1.93;1.80;;;;;;;;;;4966060;28;20583;-87
2024/02/21 17:13:54;;;;;;;4.67;2.27;;;;;;;;;;4950922;28;20472;-86